Terminal Aerodrome Forecast
Issued by NWS Cleveland, OH

Home | Current Version | Previous Version | Text Only | Print | Product List | Glossary On
Versions: 1 2 3 4 5 6 7 8 9 10 11 12 13 14 15
592
FTUS41 KCLE 191720
TAFMFD
TAF
KMFD 191720Z 1918/2018 32015G25KT P6SM BKN035
     FM200000 33006KT P6SM FEW040
     FM200200 32005KT P6SM FEW250
     FM201400 33008KT P6SM FEW250=

USA.gov is the U.S. government's official web portal to all federal, state and local government web resources and services.